createdAt,value
2022-09-24T00:01:44.508Z,6.17
2022-09-24T00:04:16.079Z,7.77
2022-09-24T00:06:45.844Z,6.20
2022-09-24T00:09:14.992Z,7.13
2022-09-24T00:11:44.080Z,5.67
2022-09-24T00:14:11.232Z,6.03
2022-09-24T00:16:44.063Z,6.13
2022-09-24T00:19:14.215Z,7.30
2022-09-24T00:21:41.691Z,7.90
2022-09-24T00:24:32.624Z,5.37
2022-09-24T00:26:59.694Z,5.97
2022-09-24T00:29:28.338Z,8.27
2022-09-24T00:31:55.406Z,7.00
2022-09-24T00:34:22.124Z,6.23
2022-09-24T00:36:48.807Z,7.30
2022-09-24T00:39:18.942Z,6.63
2022-09-24T00:41:51.242Z,5.97
2022-09-24T00:44:37.543Z,9.77
2022-09-24T00:47:05.031Z,6.27
2022-09-24T00:49:32.068Z,7.70
2022-09-24T00:51:58.694Z,9.30
2022-09-24T00:54:28.769Z,7.07
2022-09-24T00:56:57.955Z,7.63
2022-09-24T00:59:29.045Z,8.73
2022-09-24T01:01:59.539Z,8.63
2022-09-24T01:04:27.915Z,7.10
2022-09-24T01:06:55.766Z,8.50
2022-09-24T01:09:26.047Z,9.10
2022-09-24T01:12:23.318Z,7.20
2022-09-24T01:15:10.099Z,11.33
2022-09-24T01:17:50.624Z,8.30
2022-09-24T01:20:45.144Z,8.83
2022-09-24T01:23:15.391Z,6.37
2022-09-24T01:26:20.619Z,6.63
2022-09-24T01:29:06.975Z,7.67
2022-09-24T01:31:41.035Z,7.70
2022-09-24T01:34:09.233Z,7.90
2022-09-24T01:36:37.074Z,8.83
2022-09-24T01:39:06.800Z,7.70
2022-09-24T01:41:34.312Z,6.27
2022-09-24T01:44:03.208Z,6.43
2022-09-24T01:46:32.078Z,7.03
2022-09-24T01:48:59.292Z,7.83
2022-09-24T01:51:39.212Z,7.93
2022-09-24T01:54:33.100Z,6.03
2022-09-24T01:57:09.948Z,5.30
2022-09-24T01:59:40.619Z,7.40
2022-09-24T02:02:14.662Z,6.53
2022-09-24T02:04:47.632Z,9.40
2022-09-24T02:07:22.879Z,6.80
2022-09-24T02:09:49.823Z,6.27
2022-09-24T02:12:35.698Z,5.60
2022-09-24T02:15:11.611Z,5.20
2022-09-24T02:17:40.857Z,8.63
2022-09-24T02:20:16.455Z,8.37
2022-09-24T02:22:45.778Z,5.60
2022-09-24T02:25:18.426Z,6.13
2022-09-24T02:27:45.081Z,6.67
2022-09-24T02:30:12.137Z,5.77
2022-09-24T02:32:41.105Z,5.67
2022-09-24T02:35:10.255Z,4.97
2022-09-24T02:37:42.724Z,4.73
2022-09-24T02:40:13.543Z,8.23
2022-09-24T02:42:42.321Z,5.03
2022-09-24T02:45:10.642Z,8.67
2022-09-24T02:47:37.658Z,7.87
2022-09-24T02:50:04.762Z,7.00
2022-09-24T02:52:31.464Z,7.97
2022-09-24T02:54:58.150Z,5.77
2022-09-24T02:57:24.751Z,6.93
2022-09-24T02:59:51.343Z,7.63
2022-09-24T03:02:18.027Z,5.07
2022-09-24T03:04:44.797Z,6.83
2022-09-24T03:07:14.643Z,5.97
2022-09-24T03:09:41.520Z,7.50
2022-09-24T03:12:08.284Z,12.23
2022-09-24T03:14:35.018Z,8.53
2022-09-24T03:17:01.667Z,6.87
2022-09-24T03:19:28.318Z,7.60
2022-09-24T03:21:54.906Z,9.93
2022-09-24T03:24:21.491Z,6.90
2022-09-24T03:26:48.127Z,7.40
2022-09-24T03:29:14.791Z,6.20
2022-09-24T03:31:41.461Z,4.40
2022-09-24T03:34:08.959Z,5.53
2022-09-24T03:36:35.630Z,6.90
2022-09-24T03:39:02.270Z,7.63
2022-09-24T03:41:28.977Z,6.07
2022-09-24T03:43:56.604Z,5.70
2022-09-24T03:46:30.199Z,6.00
2022-09-24T03:48:59.422Z,4.30
2022-09-24T03:51:26.142Z,7.23
2022-09-24T03:53:52.761Z,4.47
2022-09-24T03:56:19.371Z,6.23
2022-09-24T03:58:48.233Z,4.80
2022-09-24T04:01:20.692Z,5.80
2022-09-24T04:03:48.579Z,4.47
2022-09-24T04:06:15.303Z,5.50
2022-09-24T04:08:41.956Z,4.60
2022-09-24T04:11:08.629Z,8.00
2022-09-24T04:13:35.379Z,10.47
2022-09-24T04:16:05.398Z,4.90
2022-09-24T04:18:35.683Z,5.87
2022-09-24T04:21:05.251Z,8.10
2022-09-24T04:23:31.852Z,8.37
2022-09-24T04:26:02.326Z,7.67
2022-09-24T04:28:30.180Z,7.17
2022-09-24T04:30:57.342Z,7.13
2022-09-24T04:33:24.067Z,4.73
2022-09-24T04:35:50.749Z,6.50
2022-09-24T04:38:18.755Z,5.70
2022-09-24T04:40:47.426Z,6.27
2022-09-24T04:43:14.166Z,7.33
2022-09-24T04:45:46.471Z,8.83
2022-09-24T04:48:14.024Z,4.73
2022-09-24T04:50:45.563Z,7.37
2022-09-24T04:53:12.949Z,7.33
2022-09-24T04:55:39.736Z,3.27
2022-09-24T04:58:06.555Z,7.47
2022-09-24T05:00:33.556Z,8.63
2022-09-24T05:03:05.114Z,6.80
2022-09-24T05:05:33.312Z,6.20
2022-09-24T05:08:01.629Z,6.03
2022-09-24T05:10:29.889Z,6.87
2022-09-24T05:12:56.488Z,5.87
2022-09-24T05:15:23.448Z,6.43
2022-09-24T05:17:50.062Z,6.47
2022-09-24T05:20:19.791Z,6.23
2022-09-24T05:22:49.628Z,9.33
2022-09-24T05:25:20.884Z,6.23
2022-09-24T05:27:52.298Z,7.40
2022-09-24T05:30:22.382Z,6.40
2022-09-24T05:32:52.278Z,7.57
2022-09-24T05:35:24.002Z,6.50
2022-09-24T05:37:56.290Z,5.37
2022-09-24T05:40:44.376Z,5.77
2022-09-24T05:43:13.631Z,4.70
2022-09-24T05:45:43.530Z,5.87
2022-09-24T05:48:12.087Z,8.70
2022-09-24T05:50:38.798Z,5.50
2022-09-24T05:53:06.270Z,4.37
2022-09-24T05:55:33.659Z,7.33
2022-09-24T05:58:07.830Z,5.97
2022-09-24T06:00:37.726Z,4.43
2022-09-24T06:03:08.956Z,5.40
2022-09-24T06:05:35.888Z,4.73
2022-09-24T06:08:06.280Z,7.40
2022-09-24T06:10:36.989Z,4.90
2022-09-24T06:13:04.150Z,5.77
2022-09-24T06:15:31.064Z,6.37
2022-09-24T06:17:57.710Z,7.73
2022-09-24T06:20:26.825Z,7.50
2022-09-24T06:23:00.088Z,5.63
2022-09-24T06:25:27.031Z,8.50
2022-09-24T06:28:02.075Z,8.83
2022-09-24T06:30:39.213Z,12.07
2022-09-24T06:33:10.612Z,5.87
2022-09-24T06:35:38.367Z,10.50
2022-09-24T06:38:06.222Z,7.00
2022-09-24T06:40:36.864Z,5.67
2022-09-24T06:43:04.422Z,6.43
2022-09-24T06:45:31.060Z,5.77
2022-09-24T06:48:03.074Z,5.17
2022-09-24T06:50:31.992Z,6.93
2022-09-24T06:53:03.829Z,9.80
2022-09-24T06:55:37.054Z,8.07
2022-09-24T06:58:27.503Z,7.77
2022-09-24T07:00:59.058Z,6.30
2022-09-24T07:03:27.410Z,5.37
2022-09-24T07:05:57.451Z,8.70
2022-09-24T07:08:24.040Z,4.77
2022-09-24T07:10:53.083Z,4.33
2022-09-24T07:13:23.518Z,4.60
2022-09-24T07:15:52.336Z,5.50
2022-09-24T07:18:20.409Z,6.93
2022-09-24T07:20:54.783Z,5.03
2022-09-24T07:23:21.845Z,6.30
2022-09-24T07:25:51.671Z,4.80
2022-09-24T07:28:19.673Z,6.40
2022-09-24T07:30:46.324Z,4.83
2022-09-24T07:33:18.204Z,7.43
2022-09-24T07:35:47.625Z,4.50
2022-09-24T07:38:16.950Z,7.93
2022-09-24T07:40:45.124Z,6.47
2022-09-24T07:43:14.167Z,4.83
2022-09-24T07:45:42.080Z,4.90
2022-09-24T07:48:10.445Z,4.87
2022-09-24T07:50:44.682Z,5.73
2022-09-24T07:53:12.679Z,6.70
2022-09-24T07:55:41.092Z,4.67
2022-09-24T07:58:13.729Z,4.80
2022-09-24T08:00:40.896Z,6.83
2022-09-24T08:03:07.578Z,7.10
2022-09-24T08:05:34.738Z,5.17
2022-09-24T08:08:01.551Z,5.57
2022-09-24T08:10:28.420Z,4.13
2022-09-24T08:12:57.042Z,5.10
2022-09-24T08:15:24.084Z,8.03
2022-09-24T08:17:51.240Z,5.53
2022-09-24T08:20:18.250Z,3.00
2022-09-24T08:22:45.028Z,3.90
2022-09-24T08:25:11.900Z,2.73
2022-09-24T08:27:38.615Z,5.27
2022-09-24T08:30:06.411Z,4.23
2022-09-24T08:32:33.046Z,5.00
2022-09-24T08:34:59.651Z,2.57
2022-09-24T08:37:28.177Z,6.07
2022-09-24T08:39:54.921Z,6.73
2022-09-24T08:42:37.574Z,2.53
2022-09-24T08:45:25.083Z,4.87
2022-09-24T08:48:09.722Z,3.47
2022-09-24T08:50:39.679Z,5.27
2022-09-24T08:53:26.541Z,4.60
2022-09-24T08:55:55.786Z,5.97
2022-09-24T08:58:33.005Z,2.97
2022-09-24T09:01:21.498Z,3.83
2022-09-24T09:03:57.212Z,3.63
2022-09-24T09:06:23.787Z,7.13
2022-09-24T09:09:12.192Z,3.63
2022-09-24T09:11:40.868Z,3.30
2022-09-24T09:14:19.659Z,6.77
2022-09-24T09:16:49.268Z,4.63
2022-09-24T09:19:18.053Z,4.10
2022-09-24T09:21:53.714Z,4.07
2022-09-24T09:24:27.325Z,3.40
2022-09-24T09:26:56.098Z,4.93
2022-09-24T09:29:26.655Z,5.67
2022-09-24T09:32:35.211Z,2.90
2022-09-24T09:35:29.782Z,3.00
2022-09-24T09:38:29.507Z,2.20
2022-09-24T09:41:14.869Z,5.77
2022-09-24T09:43:41.880Z,5.23
2022-09-24T09:46:18.619Z,4.30
2022-09-24T09:48:49.360Z,2.53
2022-09-24T09:51:22.574Z,3.17
2022-09-24T09:54:00.708Z,6.70
2022-09-24T09:56:34.282Z,1.87
2022-09-24T09:59:12.964Z,3.83
2022-09-24T10:01:42.170Z,2.93
2022-09-24T10:04:35.180Z,3.47
2022-09-24T10:07:16.306Z,2.20
2022-09-24T10:09:50.462Z,3.33
2022-09-24T10:12:22.288Z,5.43
2022-09-24T10:15:04.331Z,7.23
2022-09-24T10:17:38.382Z,5.00
2022-09-24T10:20:18.387Z,2.93
2022-09-24T10:22:52.809Z,4.83
2022-09-24T10:25:26.342Z,1.50
2022-09-24T10:28:16.115Z,3.80
2022-09-24T10:31:01.178Z,4.23
2022-09-24T10:33:39.621Z,2.83
2022-09-24T10:36:21.233Z,5.23
2022-09-24T10:39:01.902Z,5.70
2022-09-24T10:41:31.402Z,5.13
2022-09-24T10:44:03.291Z,3.53
2022-09-24T10:46:53.637Z,5.20
2022-09-24T10:49:23.073Z,2.23
2022-09-24T10:51:55.219Z,2.07
2022-09-24T10:54:33.195Z,3.87
2022-09-24T10:57:09.005Z,5.77
2022-09-24T11:00:02.227Z,2.83
2022-09-24T11:03:11.689Z,3.53
2022-09-24T11:06:10.671Z,3.17
2022-09-24T11:09:12.762Z,3.07
2022-09-24T11:11:59.931Z,2.23
2022-09-24T11:15:12.038Z,2.70
2022-09-24T11:18:07.020Z,3.30
2022-09-24T11:20:49.520Z,3.87
2022-09-24T11:23:56.626Z,1.83
2022-09-24T11:26:32.326Z,3.43
2022-09-24T11:29:50.222Z,3.33
2022-09-24T11:32:25.817Z,3.03
2022-09-24T11:35:15.621Z,4.53
2022-09-24T11:37:51.161Z,3.47
2022-09-24T11:40:38.648Z,2.17
2022-09-24T11:43:26.532Z,5.00
2022-09-24T11:45:58.106Z,3.33
2022-09-24T11:48:45.885Z,3.37
2022-09-24T11:51:51.363Z,6.10
2022-09-24T11:54:30.161Z,5.60
2022-09-24T11:57:24.195Z,2.23
2022-09-24T12:00:09.863Z,5.53
2022-09-24T12:03:04.176Z,3.57
2022-09-24T12:05:35.906Z,3.63
2022-09-24T12:08:02.515Z,3.53
2022-09-24T12:10:32.398Z,1.57
2022-09-24T12:13:16.064Z,2.43
2022-09-24T12:15:54.607Z,2.57
2022-09-24T12:18:24.010Z,3.53
2022-09-24T12:20:59.404Z,2.03
2022-09-24T12:23:32.840Z,5.80
2022-09-24T12:26:05.847Z,5.67
2022-09-24T12:29:21.270Z,2.53
2022-09-24T12:32:21.007Z,4.67
2022-09-24T12:35:00.718Z,1.90
2022-09-24T12:37:34.226Z,4.57
2022-09-24T12:40:12.885Z,2.17
2022-09-24T12:42:45.471Z,3.93
2022-09-24T12:45:19.383Z,1.73
2022-09-24T12:48:00.301Z,1.93
2022-09-24T12:50:40.744Z,2.23
2022-09-24T12:53:27.881Z,2.93
2022-09-24T12:56:05.220Z,3.13
2022-09-24T12:58:44.024Z,3.67
2022-09-24T13:01:32.743Z,3.00
2022-09-24T13:04:25.958Z,1.47
2022-09-24T13:06:53.183Z,3.30
2022-09-24T13:09:26.323Z,3.20
2022-09-24T13:12:05.006Z,3.00
2022-09-24T13:14:36.275Z,4.27
2022-09-24T13:17:08.888Z,2.43
2022-09-24T13:19:41.127Z,3.57
2022-09-24T13:22:29.591Z,3.83
2022-09-24T13:25:08.232Z,3.80
2022-09-24T13:27:41.393Z,2.90
2022-09-24T13:30:19.651Z,4.60
2022-09-24T13:33:01.134Z,2.67
2022-09-24T13:35:35.703Z,5.80
2022-09-24T13:38:12.512Z,1.73
2022-09-24T13:40:45.667Z,4.67
2022-09-24T13:43:25.334Z,4.73
2022-09-24T13:45:52.798Z,2.83
2022-09-24T13:48:38.878Z,5.13
2022-09-24T13:51:11.933Z,5.33
2022-09-24T13:53:55.985Z,1.90
2022-09-24T13:56:23.491Z,2.00
2022-09-24T13:58:51.501Z,2.37
2022-09-24T14:01:30.014Z,1.37
2022-09-24T14:04:01.108Z,4.63
2022-09-24T14:06:37.484Z,18.87
2022-09-24T14:09:31.790Z,4.43
2022-09-24T14:12:03.483Z,3.40
2022-09-24T14:14:34.752Z,1.53
2022-09-24T14:17:09.515Z,4.00
2022-09-24T14:19:36.304Z,2.67
2022-09-24T14:22:06.843Z,3.83
2022-09-24T14:24:48.387Z,4.50
2022-09-24T14:27:19.585Z,1.87
2022-09-24T14:29:53.402Z,4.83
2022-09-24T14:32:27.740Z,4.03
2022-09-24T14:35:07.960Z,3.93
2022-09-24T14:37:38.131Z,5.23
2022-09-24T14:40:14.686Z,4.43
2022-09-24T14:43:03.369Z,2.90
2022-09-24T14:45:40.960Z,5.90
2022-09-24T14:48:30.685Z,2.13
2022-09-24T14:50:57.421Z,2.00
2022-09-24T14:53:27.026Z,4.47
2022-09-24T14:55:54.359Z,4.00
2022-09-24T14:58:30.028Z,2.90
2022-09-24T15:01:05.907Z,2.73
2022-09-24T15:03:50.341Z,4.33
2022-09-24T15:06:23.465Z,1.50
2022-09-24T15:09:07.439Z,7.80
2022-09-24T15:11:43.251Z,6.63
2022-09-24T15:14:20.139Z,3.87
2022-09-24T15:16:47.726Z,4.47
2022-09-24T15:19:20.350Z,3.53
2022-09-24T15:21:51.537Z,1.37
2022-09-24T15:24:20.326Z,2.87
2022-09-24T15:27:08.355Z,2.37
2022-09-24T15:29:35.023Z,3.83
2022-09-24T15:32:02.363Z,1.57
2022-09-24T15:34:29.094Z,3.67
2022-09-24T15:37:01.590Z,4.80
2022-09-24T15:39:28.741Z,2.30
2022-09-24T15:41:55.354Z,7.40
2022-09-24T15:44:27.188Z,3.77
2022-09-24T15:46:56.818Z,2.47
2022-09-24T15:49:23.815Z,2.43
2022-09-24T15:51:59.958Z,2.63
2022-09-24T15:54:26.573Z,2.43
2022-09-24T15:56:53.350Z,4.10
2022-09-24T15:59:21.647Z,3.40
2022-09-24T16:01:51.245Z,2.97
2022-09-24T16:04:18.000Z,4.87
2022-09-24T16:06:44.675Z,2.90
2022-09-24T16:09:11.286Z,1.47
2022-09-24T16:11:38.088Z,4.30
2022-09-24T16:14:05.762Z,4.10
2022-09-24T16:16:32.440Z,2.53
2022-09-24T16:18:59.394Z,3.07
2022-09-24T16:21:26.082Z,2.40
2022-09-24T16:23:56.819Z,6.27
2022-09-24T16:26:23.694Z,2.57
2022-09-24T16:28:51.701Z,4.33
2022-09-24T16:31:21.361Z,5.43
2022-09-24T16:33:48.190Z,2.97
2022-09-24T16:36:14.852Z,3.50
2022-09-24T16:38:41.539Z,4.47
2022-09-24T16:41:08.454Z,7.80
2022-09-24T16:43:35.085Z,4.27
2022-09-24T16:46:03.773Z,7.93
2022-09-24T16:48:31.484Z,3.00
2022-09-24T16:51:08.281Z,5.43
2022-09-24T16:53:35.302Z,6.03
2022-09-24T16:56:08.496Z,3.60
2022-09-24T16:58:35.563Z,6.50
2022-09-24T17:01:11.062Z,4.63
2022-09-24T17:03:40.973Z,6.23
2022-09-24T17:06:08.199Z,6.67
2022-09-24T17:08:55.126Z,4.30
2022-09-24T17:11:22.754Z,10.00
2022-09-24T17:13:49.395Z,7.77
2022-09-24T17:16:18.264Z,5.93
2022-09-24T17:18:46.230Z,6.00
2022-09-24T17:21:13.520Z,7.07
2022-09-24T17:23:40.196Z,10.07
2022-09-24T17:26:12.475Z,12.80
2022-09-24T17:28:43.874Z,13.73
2022-09-24T17:31:14.374Z,7.90
2022-09-24T17:33:45.285Z,7.07
2022-09-24T17:36:12.864Z,10.17
2022-09-24T17:38:39.750Z,6.90
2022-09-24T17:41:11.843Z,7.83
2022-09-24T17:43:39.597Z,7.87
2022-09-24T17:46:13.764Z,13.57
2022-09-24T17:48:47.642Z,15.50
2022-09-24T17:51:17.009Z,15.73
2022-09-24T17:53:43.614Z,14.67
2022-09-24T17:56:12.626Z,14.70
2022-09-24T17:58:41.875Z,10.10
2022-09-24T18:01:13.731Z,10.63
2022-09-24T18:03:41.144Z,11.53
2022-09-24T18:06:10.729Z,8.47
2022-09-24T18:08:39.305Z,8.40
2022-09-24T18:11:09.612Z,8.13
2022-09-24T18:13:36.549Z,9.53
2022-09-24T18:16:15.434Z,8.87
2022-09-24T18:18:43.681Z,8.33
2022-09-24T18:21:12.519Z,8.87
2022-09-24T18:23:40.198Z,7.60
2022-09-24T18:26:11.895Z,6.93
2022-09-24T18:28:53.563Z,7.87
2022-09-24T18:31:22.894Z,5.53
2022-09-24T18:33:51.183Z,5.10
2022-09-24T18:36:21.813Z,7.03
2022-09-24T18:38:48.734Z,6.43
2022-09-24T18:41:24.150Z,6.93
2022-09-24T18:43:52.304Z,6.13
2022-09-24T18:46:21.302Z,5.93
2022-09-24T18:48:50.207Z,4.57
2022-09-24T18:51:19.728Z,5.03
2022-09-24T18:53:52.210Z,8.27
2022-09-24T18:56:18.901Z,7.27
2022-09-24T18:58:47.101Z,5.87
2022-09-24T19:01:15.647Z,7.80
2022-09-24T19:03:43.477Z,5.80
2022-09-24T19:06:12.962Z,5.50
2022-09-24T19:08:40.171Z,5.07
2022-09-24T19:11:13.884Z,4.63
2022-09-24T19:13:42.636Z,7.87
2022-09-24T19:16:14.382Z,5.53
2022-09-24T19:18:41.893Z,4.87
2022-09-24T19:21:10.915Z,5.27
2022-09-24T19:23:38.490Z,7.00
2022-09-24T19:26:06.807Z,7.17
2022-09-24T19:28:35.043Z,7.20
2022-09-24T19:31:02.333Z,4.47
2022-09-24T19:33:29.527Z,3.80
2022-09-24T19:35:59.395Z,6.50
2022-09-24T19:38:28.504Z,4.60
2022-09-24T19:41:04.842Z,3.93
2022-09-24T19:43:34.727Z,6.63
2022-09-24T19:46:06.894Z,5.47
2022-09-24T19:48:38.222Z,6.77
2022-09-24T19:51:08.753Z,7.37
2022-09-24T19:53:36.207Z,6.20
2022-09-24T19:56:06.496Z,7.77
2022-09-24T19:58:33.458Z,6.93
2022-09-24T20:01:14.943Z,6.13
2022-09-24T20:03:43.805Z,6.90
2022-09-24T20:06:13.524Z,9.03
2022-09-24T20:08:40.499Z,10.13
2022-09-24T20:11:10.905Z,8.13
2022-09-24T20:13:46.126Z,9.47
2022-09-24T20:16:24.421Z,6.70
2022-09-24T20:18:55.674Z,6.77
2022-09-24T20:21:23.030Z,8.90
2022-09-24T20:23:49.936Z,9.17
2022-09-24T20:26:35.624Z,12.07
2022-09-24T20:29:02.983Z,10.50
2022-09-24T20:31:30.208Z,8.67
2022-09-24T20:33:57.108Z,9.43
2022-09-24T20:36:25.007Z,9.10
2022-09-24T20:38:52.872Z,8.80
2022-09-24T20:41:22.029Z,9.23
2022-09-24T20:43:49.757Z,9.37
2022-09-24T20:46:21.943Z,8.10
2022-09-24T20:48:48.743Z,6.10
2022-09-24T20:51:18.207Z,9.07
2022-09-24T20:53:46.369Z,9.37
2022-09-24T20:56:13.739Z,8.10
2022-09-24T20:58:41.126Z,8.90
2022-09-24T21:01:10.355Z,8.50
2022-09-24T21:03:44.359Z,10.10
2022-09-24T21:06:12.779Z,12.17
2022-09-24T21:08:41.647Z,10.07
2022-09-24T21:11:11.352Z,10.13
2022-09-24T21:13:44.742Z,6.93
2022-09-24T21:16:12.399Z,5.77
2022-09-24T21:18:44.423Z,6.70
2022-09-24T21:21:19.220Z,5.73
2022-09-24T21:23:49.916Z,7.33
2022-09-24T21:26:30.974Z,8.53
2022-09-24T21:29:03.696Z,5.37
2022-09-24T21:31:32.954Z,4.40
2022-09-24T21:33:59.943Z,7.70
2022-09-24T21:36:32.092Z,8.00
2022-09-24T21:39:00.637Z,8.63
2022-09-24T21:41:29.564Z,7.43
2022-09-24T21:43:56.287Z,8.13
2022-09-24T21:46:24.533Z,7.27
2022-09-24T21:48:52.179Z,8.30
2022-09-24T21:51:21.783Z,8.53
2022-09-24T21:53:57.779Z,10.97
2022-09-24T21:56:25.065Z,9.53
2022-09-24T21:58:52.943Z,11.03
2022-09-24T22:01:31.001Z,12.23
2022-09-24T22:03:59.818Z,10.37
2022-09-24T22:06:29.104Z,9.57
2022-09-24T22:09:04.607Z,7.93
2022-09-24T22:11:31.868Z,9.60
2022-09-24T22:14:02.421Z,7.93
2022-09-24T22:16:31.097Z,8.97
2022-09-24T22:18:58.261Z,9.33
2022-09-24T22:21:25.468Z,8.37
2022-09-24T22:23:52.097Z,10.97
2022-09-24T22:26:18.999Z,8.03
2022-09-24T22:28:45.987Z,6.67
2022-09-24T22:31:15.338Z,9.63
2022-09-24T22:34:01.252Z,12.40
2022-09-24T22:36:30.527Z,12.70
2022-09-24T22:38:59.469Z,14.20
2022-09-24T22:41:28.967Z,13.87
2022-09-24T22:43:57.055Z,13.03
2022-09-24T22:46:27.899Z,10.47
2022-09-24T22:48:56.349Z,11.40
2022-09-24T22:51:25.206Z,11.87
2022-09-24T22:53:52.022Z,12.10
2022-09-24T22:56:21.807Z,9.97
2022-09-24T22:58:56.700Z,14.93
2022-09-24T23:01:35.116Z,10.40
2022-09-24T23:04:02.481Z,9.77
2022-09-24T23:06:30.438Z,11.43
2022-09-24T23:08:57.782Z,12.37
2022-09-24T23:11:27.431Z,9.37
2022-09-24T23:13:59.574Z,8.33
2022-09-24T23:16:28.708Z,9.20
2022-09-24T23:18:58.122Z,8.17
2022-09-24T23:21:27.026Z,7.73
2022-09-24T23:23:54.838Z,6.33
2022-09-24T23:26:23.039Z,7.30
2022-09-24T23:28:53.311Z,10.40
2022-09-24T23:31:25.203Z,7.23
2022-09-24T23:33:53.287Z,8.80
2022-09-24T23:36:19.947Z,9.73
2022-09-24T23:38:46.572Z,9.47
2022-09-24T23:41:14.219Z,5.57
2022-09-24T23:43:41.892Z,6.90
2022-09-24T23:46:09.841Z,6.50
2022-09-24T23:48:36.886Z,6.20
2022-09-24T23:51:04.443Z,7.30
2022-09-24T23:53:31.527Z,5.43
2022-09-24T23:55:58.119Z,7.57
2022-09-24T23:58:25.130Z,8.87
